sensor_id;sensor_type;location;lat;lon;timestamp;P1;durP1;ratioP1;P2;durP2;ratioP2
12896;SDS011;6516;35.028;32.372;2023-02-15T00:01:42;10.45;;;5.53;;
12896;SDS011;6516;35.028;32.372;2023-02-15T00:04:11;10.85;;;6.18;;
12896;SDS011;6516;35.028;32.372;2023-02-15T00:06:41;10.65;;;5.70;;
12896;SDS011;6516;35.028;32.372;2023-02-15T00:09:10;11.27;;;5.47;;
12896;SDS011;6516;35.028;32.372;2023-02-15T00:11:38;13.50;;;5.97;;
12896;SDS011;6516;35.028;32.372;2023-02-15T00:14:09;10.50;;;5.95;;
12896;SDS011;6516;35.028;32.372;2023-02-15T00:16:40;12.27;;;6.03;;
12896;SDS011;6516;35.028;32.372;2023-02-15T00:19:10;10.95;;;5.70;;
12896;SDS011;6516;35.028;32.372;2023-02-15T00:21:40;10.93;;;6.03;;
12896;SDS011;6516;35.028;32.372;2023-02-15T00:24:08;12.02;;;5.75;;
12896;SDS011;6516;35.028;32.372;2023-02-15T00:26:39;11.05;;;5.65;;
12896;SDS011;6516;35.028;32.372;2023-02-15T00:29:09;12.10;;;6.22;;
12896;SDS011;6516;35.028;32.372;2023-02-15T00:31:38;11.93;;;6.00;;
12896;SDS011;6516;35.028;32.372;2023-02-15T00:34:06;10.27;;;5.45;;
12896;SDS011;6516;35.028;32.372;2023-02-15T00:36:38;11.40;;;5.80;;
12896;SDS011;6516;35.028;32.372;2023-02-15T00:39:06;10.13;;;5.55;;
12896;SDS011;6516;35.028;32.372;2023-02-15T00:41:36;11.07;;;5.90;;
12896;SDS011;6516;35.028;32.372;2023-02-15T00:44:04;11.10;;;6.00;;
12896;SDS011;6516;35.028;32.372;2023-02-15T00:46:33;10.32;;;5.63;;
12896;SDS011;6516;35.028;32.372;2023-02-15T00:49:01;11.73;;;5.55;;
12896;SDS011;6516;35.028;32.372;2023-02-15T00:51:30;12.73;;;5.65;;
12896;SDS011;6516;35.028;32.372;2023-02-15T00:53:59;11.93;;;5.90;;
12896;SDS011;6516;35.028;32.372;2023-02-15T00:56:26;13.43;;;5.63;;
12896;SDS011;6516;35.028;32.372;2023-02-15T00:58:56;12.05;;;6.22;;
12896;SDS011;6516;35.028;32.372;2023-02-15T01:01:23;12.85;;;5.75;;
12896;SDS011;6516;35.028;32.372;2023-02-15T01:03:52;11.05;;;5.50;;
12896;SDS011;6516;35.028;32.372;2023-02-15T01:06:20;10.45;;;5.70;;
12896;SDS011;6516;35.028;32.372;2023-02-15T01:08:47;10.90;;;5.97;;
12896;SDS011;6516;35.028;32.372;2023-02-15T01:11:16;10.68;;;5.50;;
12896;SDS011;6516;35.028;32.372;2023-02-15T01:13:48;9.23;;;5.35;;
12896;SDS011;6516;35.028;32.372;2023-02-15T01:16:18;9.45;;;5.32;;
12896;SDS011;6516;35.028;32.372;2023-02-15T01:18:46;12.18;;;5.70;;
12896;SDS011;6516;35.028;32.372;2023-02-15T01:21:15;11.52;;;5.80;;
12896;SDS011;6516;35.028;32.372;2023-02-15T01:23:46;11.38;;;5.65;;
12896;SDS011;6516;35.028;32.372;2023-02-15T01:26:15;10.57;;;5.40;;
12896;SDS011;6516;35.028;32.372;2023-02-15T01:28:43;10.85;;;5.55;;
12896;SDS011;6516;35.028;32.372;2023-02-15T01:31:11;11.25;;;5.90;;
12896;SDS011;6516;35.028;32.372;2023-02-15T01:33:43;11.85;;;5.78;;
12896;SDS011;6516;35.028;32.372;2023-02-15T01:36:12;12.07;;;5.70;;
12896;SDS011;6516;35.028;32.372;2023-02-15T01:38:42;12.65;;;6.18;;
12896;SDS011;6516;35.028;32.372;2023-02-15T01:41:10;10.77;;;5.82;;
12896;SDS011;6516;35.028;32.372;2023-02-15T01:43:48;12.13;;;6.22;;
12896;SDS011;6516;35.028;32.372;2023-02-15T01:46:19;11.30;;;5.63;;
12896;SDS011;6516;35.028;32.372;2023-02-15T01:48:54;10.65;;;5.70;;
12896;SDS011;6516;35.028;32.372;2023-02-15T01:51:28;12.13;;;5.93;;
12896;SDS011;6516;35.028;32.372;2023-02-15T01:54:01;10.95;;;5.85;;
12896;SDS011;6516;35.028;32.372;2023-02-15T01:56:34;10.18;;;5.45;;
12896;SDS011;6516;35.028;32.372;2023-02-15T01:59:05;11.60;;;6.05;;
12896;SDS011;6516;35.028;32.372;2023-02-15T02:01:38;11.23;;;5.50;;
12896;SDS011;6516;35.028;32.372;2023-02-15T02:04:09;11.27;;;5.30;;
12896;SDS011;6516;35.028;32.372;2023-02-15T02:06:43;10.80;;;5.53;;
12896;SDS011;6516;35.028;32.372;2023-02-15T02:09:13;12.10;;;6.05;;
12896;SDS011;6516;35.028;32.372;2023-02-15T02:11:41;12.68;;;5.82;;
12896;SDS011;6516;35.028;32.372;2023-02-15T02:14:13;10.52;;;5.55;;
12896;SDS011;6516;35.028;32.372;2023-02-15T02:16:44;10.88;;;5.60;;
12896;SDS011;6516;35.028;32.372;2023-02-15T02:19:32;10.35;;;5.60;;
12896;SDS011;6516;35.028;32.372;2023-02-15T02:22:50;11.32;;;5.82;;
12896;SDS011;6516;35.028;32.372;2023-02-15T02:26:08;12.23;;;5.22;;
12896;SDS011;6516;35.028;32.372;2023-02-15T02:32:53;10.15;;;5.63;;
12896;SDS011;6516;35.028;32.372;2023-02-15T02:35:53;10.27;;;4.90;;
12896;SDS011;6516;35.028;32.372;2023-02-15T02:38:33;9.73;;;5.07;;
12896;SDS011;6516;35.028;32.372;2023-02-15T02:41:13;9.27;;;4.50;;
12896;SDS011;6516;35.028;32.372;2023-02-15T02:43:50;8.75;;;4.50;;
12896;SDS011;6516;35.028;32.372;2023-02-15T02:46:25;8.02;;;4.03;;
12896;SDS011;6516;35.028;32.372;2023-02-15T02:48:59;9.30;;;4.35;;
12896;SDS011;6516;35.028;32.372;2023-02-15T02:51:28;8.68;;;4.43;;
12896;SDS011;6516;35.028;32.372;2023-02-15T02:53:56;9.13;;;4.30;;
12896;SDS011;6516;35.028;32.372;2023-02-15T02:56:33;10.80;;;4.50;;
12896;SDS011;6516;35.028;32.372;2023-02-15T02:59:05;9.02;;;4.47;;
12896;SDS011;6516;35.028;32.372;2023-02-15T03:01:40;9.55;;;4.30;;
12896;SDS011;6516;35.028;32.372;2023-02-15T03:04:14;9.00;;;4.50;;
12896;SDS011;6516;35.028;32.372;2023-02-15T03:06:46;9.07;;;4.28;;
12896;SDS011;6516;35.028;32.372;2023-02-15T03:09:19;10.45;;;4.15;;
12896;SDS011;6516;35.028;32.372;2023-02-15T03:11:59;9.07;;;4.20;;
12896;SDS011;6516;35.028;32.372;2023-02-15T03:14:28;8.40;;;4.55;;
12896;SDS011;6516;35.028;32.372;2023-02-15T03:16:56;8.48;;;4.15;;
12896;SDS011;6516;35.028;32.372;2023-02-15T03:19:26;8.75;;;4.38;;
12896;SDS011;6516;35.028;32.372;2023-02-15T03:21:59;9.02;;;4.25;;
12896;SDS011;6516;35.028;32.372;2023-02-15T03:24:34;8.95;;;4.32;;
12896;SDS011;6516;35.028;32.372;2023-02-15T03:27:09;8.70;;;3.88;;
12896;SDS011;6516;35.028;32.372;2023-02-15T03:29:43;8.75;;;4.32;;
12896;SDS011;6516;35.028;32.372;2023-02-15T03:32:15;6.57;;;3.92;;
12896;SDS011;6516;35.028;32.372;2023-02-15T03:34:46;7.82;;;3.97;;
12896;SDS011;6516;35.028;32.372;2023-02-15T03:37:15;7.60;;;4.00;;
12896;SDS011;6516;35.028;32.372;2023-02-15T03:39:51;7.43;;;3.65;;
12896;SDS011;6516;35.028;32.372;2023-02-15T03:42:43;7.32;;;3.40;;
12896;SDS011;6516;35.028;32.372;2023-02-15T03:45:17;8.55;;;3.22;;
12896;SDS011;6516;35.028;32.372;2023-02-15T03:47:52;7.78;;;3.70;;
12896;SDS011;6516;35.028;32.372;2023-02-15T03:50:26;7.05;;;3.40;;
12896;SDS011;6516;35.028;32.372;2023-02-15T03:53:14;7.28;;;3.60;;
12896;SDS011;6516;35.028;32.372;2023-02-15T03:55:46;6.03;;;3.13;;
12896;SDS011;6516;35.028;32.372;2023-02-15T03:58:14;8.38;;;3.50;;
12896;SDS011;6516;35.028;32.372;2023-02-15T04:00:59;8.48;;;3.65;;
12896;SDS011;6516;35.028;32.372;2023-02-15T04:03:49;6.60;;;3.13;;
12896;SDS011;6516;35.028;32.372;2023-02-15T04:06:25;7.35;;;3.67;;
12896;SDS011;6516;35.028;32.372;2023-02-15T04:08:53;6.78;;;3.35;;
12896;SDS011;6516;35.028;32.372;2023-02-15T04:11:34;7.43;;;3.55;;
12896;SDS011;6516;35.028;32.372;2023-02-15T04:14:02;6.65;;;3.33;;
12896;SDS011;6516;35.028;32.372;2023-02-15T04:16:50;6.88;;;3.60;;
12896;SDS011;6516;35.028;32.372;2023-02-15T04:19:16;8.50;;;3.95;;
12896;SDS011;6516;35.028;32.372;2023-02-15T04:22:03;7.10;;;3.53;;
12896;SDS011;6516;35.028;32.372;2023-02-15T04:24:48;7.40;;;3.50;;
12896;SDS011;6516;35.028;32.372;2023-02-15T04:27:33;6.40;;;3.42;;
12896;SDS011;6516;35.028;32.372;2023-02-15T04:30:00;6.70;;;3.20;;
12896;SDS011;6516;35.028;32.372;2023-02-15T04:32:28;6.95;;;3.50;;
12896;SDS011;6516;35.028;32.372;2023-02-15T04:34:56;7.38;;;3.45;;
12896;SDS011;6516;35.028;32.372;2023-02-15T04:37:25;6.45;;;3.33;;
12896;SDS011;6516;35.028;32.372;2023-02-15T04:39:53;7.45;;;3.63;;
12896;SDS011;6516;35.028;32.372;2023-02-15T04:42:23;8.60;;;3.63;;
12896;SDS011;6516;35.028;32.372;2023-02-15T04:44:52;9.35;;;3.70;;
12896;SDS011;6516;35.028;32.372;2023-02-15T04:47:20;8.93;;;3.85;;
12896;SDS011;6516;35.028;32.372;2023-02-15T04:49:48;6.78;;;3.10;;
12896;SDS011;6516;35.028;32.372;2023-02-15T04:52:16;8.52;;;3.90;;
12896;SDS011;6516;35.028;32.372;2023-02-15T04:54:46;7.40;;;4.07;;
12896;SDS011;6516;35.028;32.372;2023-02-15T04:57:14;7.53;;;3.88;;
12896;SDS011;6516;35.028;32.372;2023-02-15T04:59:42;7.30;;;3.45;;
12896;SDS011;6516;35.028;32.372;2023-02-15T05:02:10;6.97;;;3.30;;
12896;SDS011;6516;35.028;32.372;2023-02-15T05:04:37;7.97;;;3.55;;
12896;SDS011;6516;35.028;32.372;2023-02-15T05:07:05;6.77;;;3.40;;
12896;SDS011;6516;35.028;32.372;2023-02-15T05:09:33;8.85;;;3.60;;
12896;SDS011;6516;35.028;32.372;2023-02-15T05:12:02;6.80;;;3.55;;
12896;SDS011;6516;35.028;32.372;2023-02-15T05:14:30;8.02;;;3.60;;
12896;SDS011;6516;35.028;32.372;2023-02-15T05:16:58;7.22;;;3.50;;
12896;SDS011;6516;35.028;32.372;2023-02-15T05:19:28;8.23;;;3.73;;
12896;SDS011;6516;35.028;32.372;2023-02-15T05:21:56;6.65;;;3.38;;
12896;SDS011;6516;35.028;32.372;2023-02-15T05:24:24;7.72;;;3.03;;
12896;SDS011;6516;35.028;32.372;2023-02-15T05:27:11;7.00;;;3.55;;
12896;SDS011;6516;35.028;32.372;2023-02-15T05:30:08;7.45;;;3.78;;
12896;SDS011;6516;35.028;32.372;2023-02-15T05:32:38;7.67;;;3.40;;
12896;SDS011;6516;35.028;32.372;2023-02-15T05:35:06;7.88;;;3.10;;
12896;SDS011;6516;35.028;32.372;2023-02-15T05:37:34;6.53;;;3.47;;
12896;SDS011;6516;35.028;32.372;2023-02-15T05:40:02;7.53;;;3.30;;
12896;SDS011;6516;35.028;32.372;2023-02-15T05:42:31;6.25;;;3.25;;
12896;SDS011;6516;35.028;32.372;2023-02-15T05:44:59;5.77;;;2.80;;
12896;SDS011;6516;35.028;32.372;2023-02-15T05:47:28;7.95;;;3.30;;
12896;SDS011;6516;35.028;32.372;2023-02-15T05:49:56;8.43;;;3.50;;
12896;SDS011;6516;35.028;32.372;2023-02-15T05:52:24;5.63;;;2.88;;
12896;SDS011;6516;35.028;32.372;2023-02-15T05:54:52;7.78;;;3.17;;
12896;SDS011;6516;35.028;32.372;2023-02-15T05:57:20;6.63;;;3.47;;
12896;SDS011;6516;35.028;32.372;2023-02-15T05:59:49;5.85;;;2.88;;
12896;SDS011;6516;35.028;32.372;2023-02-15T06:02:16;5.65;;;2.53;;
12896;SDS011;6516;35.028;32.372;2023-02-15T06:04:46;6.03;;;3.10;;
12896;SDS011;6516;35.028;32.372;2023-02-15T06:07:14;6.30;;;2.80;;
12896;SDS011;6516;35.028;32.372;2023-02-15T06:09:42;7.63;;;3.03;;
12896;SDS011;6516;35.028;32.372;2023-02-15T06:12:09;6.93;;;2.75;;
12896;SDS011;6516;35.028;32.372;2023-02-15T06:14:37;5.28;;;2.70;;
12896;SDS011;6516;35.028;32.372;2023-02-15T06:17:06;5.32;;;2.90;;
12896;SDS011;6516;35.028;32.372;2023-02-15T06:19:34;5.43;;;2.70;;
12896;SDS011;6516;35.028;32.372;2023-02-15T06:22:02;5.30;;;2.80;;
12896;SDS011;6516;35.028;32.372;2023-02-15T06:24:33;4.90;;;2.10;;
12896;SDS011;6516;35.028;32.372;2023-02-15T06:27:00;7.22;;;2.40;;
12896;SDS011;6516;35.028;32.372;2023-02-15T06:29:29;6.72;;;2.40;;
12896;SDS011;6516;35.028;32.372;2023-02-15T06:31:56;5.10;;;2.15;;
12896;SDS011;6516;35.028;32.372;2023-02-15T06:34:26;4.67;;;2.27;;
12896;SDS011;6516;35.028;32.372;2023-02-15T06:36:53;5.15;;;2.38;;
12896;SDS011;6516;35.028;32.372;2023-02-15T06:39:21;4.30;;;2.10;;
12896;SDS011;6516;35.028;32.372;2023-02-15T06:41:49;4.95;;;2.15;;
12896;SDS011;6516;35.028;32.372;2023-02-15T06:44:16;4.75;;;2.10;;
12896;SDS011;6516;35.028;32.372;2023-02-15T06:46:44;7.40;;;2.60;;
12896;SDS011;6516;35.028;32.372;2023-02-15T06:49:12;4.72;;;2.33;;
12896;SDS011;6516;35.028;32.372;2023-02-15T06:51:41;6.03;;;2.50;;
12896;SDS011;6516;35.028;32.372;2023-02-15T06:54:09;5.00;;;2.40;;
12896;SDS011;6516;35.028;32.372;2023-02-15T06:56:36;5.18;;;2.35;;
12896;SDS011;6516;35.028;32.372;2023-02-15T06:59:04;4.83;;;2.23;;
12896;SDS011;6516;35.028;32.372;2023-02-15T07:01:32;4.82;;;2.30;;
12896;SDS011;6516;35.028;32.372;2023-02-15T07:04:02;4.75;;;2.10;;
12896;SDS011;6516;35.028;32.372;2023-02-15T07:06:30;5.40;;;2.30;;
12896;SDS011;6516;35.028;32.372;2023-02-15T07:09:00;5.57;;;2.20;;
12896;SDS011;6516;35.028;32.372;2023-02-15T07:11:30;5.37;;;2.33;;
12896;SDS011;6516;35.028;32.372;2023-02-15T07:14:15;4.90;;;2.35;;
12896;SDS011;6516;35.028;32.372;2023-02-15T07:16:42;4.90;;;2.33;;
12896;SDS011;6516;35.028;32.372;2023-02-15T07:19:10;5.72;;;2.90;;
12896;SDS011;6516;35.028;32.372;2023-02-15T07:21:38;5.35;;;2.97;;
12896;SDS011;6516;35.028;32.372;2023-02-15T07:24:08;5.63;;;2.63;;
12896;SDS011;6516;35.028;32.372;2023-02-15T07:26:35;6.82;;;3.13;;
12896;SDS011;6516;35.028;32.372;2023-02-15T07:29:03;6.18;;;3.50;;
12896;SDS011;6516;35.028;32.372;2023-02-15T07:31:31;5.43;;;3.05;;
12896;SDS011;6516;35.028;32.372;2023-02-15T07:33:59;7.20;;;3.75;;
12896;SDS011;6516;35.028;32.372;2023-02-15T07:36:26;6.03;;;3.40;;
12896;SDS011;6516;35.028;32.372;2023-02-15T07:38:54;6.43;;;3.13;;
12896;SDS011;6516;35.028;32.372;2023-02-15T07:41:23;6.75;;;3.30;;
12896;SDS011;6516;35.028;32.372;2023-02-15T07:43:51;5.72;;;2.90;;
12896;SDS011;6516;35.028;32.372;2023-02-15T07:46:19;5.18;;;2.75;;
12896;SDS011;6516;35.028;32.372;2023-02-15T07:48:47;7.07;;;3.00;;
12896;SDS011;6516;35.028;32.372;2023-02-15T07:51:14;6.22;;;2.60;;
12896;SDS011;6516;35.028;32.372;2023-02-15T07:53:42;4.80;;;2.70;;
12896;SDS011;6516;35.028;32.372;2023-02-15T07:56:11;7.07;;;3.25;;
12896;SDS011;6516;35.028;32.372;2023-02-15T07:58:42;6.43;;;3.22;;
12896;SDS011;6516;35.028;32.372;2023-02-15T08:01:21;6.07;;;2.90;;
12896;SDS011;6516;35.028;32.372;2023-02-15T08:03:51;5.70;;;2.70;;
12896;SDS011;6516;35.028;32.372;2023-02-15T08:06:19;5.47;;;2.90;;
12896;SDS011;6516;35.028;32.372;2023-02-15T08:08:48;7.05;;;2.85;;
12896;SDS011;6516;35.028;32.372;2023-02-15T08:11:17;8.00;;;2.67;;
12896;SDS011;6516;35.028;32.372;2023-02-15T08:13:56;6.53;;;2.90;;
12896;SDS011;6516;35.028;32.372;2023-02-15T08:16:28;7.97;;;3.95;;
12896;SDS011;6516;35.028;32.372;2023-02-15T08:18:59;7.55;;;3.25;;
12896;SDS011;6516;35.028;32.372;2023-02-15T08:21:29;5.60;;;2.70;;
12896;SDS011;6516;35.028;32.372;2023-02-15T08:23:58;4.68;;;2.35;;
12896;SDS011;6516;35.028;32.372;2023-02-15T08:26:26;4.87;;;2.50;;
12896;SDS011;6516;35.028;32.372;2023-02-15T08:28:58;6.68;;;3.33;;
12896;SDS011;6516;35.028;32.372;2023-02-15T08:31:26;11.27;;;5.35;;
12896;SDS011;6516;35.028;32.372;2023-02-15T08:33:55;8.70;;;4.18;;
12896;SDS011;6516;35.028;32.372;2023-02-15T08:36:24;6.35;;;3.35;;
12896;SDS011;6516;35.028;32.372;2023-02-15T08:38:54;6.50;;;3.03;;
12896;SDS011;6516;35.028;32.372;2023-02-15T08:41:23;6.25;;;2.95;;
12896;SDS011;6516;35.028;32.372;2023-02-15T08:43:55;6.53;;;2.97;;
12896;SDS011;6516;35.028;32.372;2023-02-15T08:46:26;6.65;;;2.70;;
12896;SDS011;6516;35.028;32.372;2023-02-15T08:48:57;6.50;;;3.10;;
12896;SDS011;6516;35.028;32.372;2023-02-15T08:51:25;6.57;;;3.10;;
12896;SDS011;6516;35.028;32.372;2023-02-15T08:53:56;6.40;;;2.97;;
12896;SDS011;6516;35.028;32.372;2023-02-15T08:56:27;6.65;;;2.75;;
12896;SDS011;6516;35.028;32.372;2023-02-15T08:58:58;6.05;;;3.00;;
12896;SDS011;6516;35.028;32.372;2023-02-15T09:01:51;6.20;;;2.97;;
12896;SDS011;6516;35.028;32.372;2023-02-15T09:04:20;5.13;;;2.77;;
12896;SDS011;6516;35.028;32.372;2023-02-15T09:06:48;5.95;;;2.78;;
12896;SDS011;6516;35.028;32.372;2023-02-15T09:09:18;6.28;;;2.67;;
12896;SDS011;6516;35.028;32.372;2023-02-15T09:11:47;7.10;;;2.60;;
12896;SDS011;6516;35.028;32.372;2023-02-15T09:14:19;6.85;;;3.00;;
12896;SDS011;6516;35.028;32.372;2023-02-15T09:16:48;7.17;;;3.10;;
12896;SDS011;6516;35.028;32.372;2023-02-15T09:19:16;7.03;;;3.47;;
12896;SDS011;6516;35.028;32.372;2023-02-15T09:21:47;5.72;;;2.90;;
12896;SDS011;6516;35.028;32.372;2023-02-15T09:24:16;6.57;;;3.15;;
12896;SDS011;6516;35.028;32.372;2023-02-15T09:26:44;6.97;;;2.72;;
12896;SDS011;6516;35.028;32.372;2023-02-15T09:29:14;5.40;;;2.60;;
12896;SDS011;6516;35.028;32.372;2023-02-15T09:31:46;5.22;;;2.92;;
12896;SDS011;6516;35.028;32.372;2023-02-15T09:34:16;6.82;;;3.08;;
12896;SDS011;6516;35.028;32.372;2023-02-15T09:36:46;6.07;;;3.20;;
12896;SDS011;6516;35.028;32.372;2023-02-15T09:39:14;5.90;;;2.80;;
12896;SDS011;6516;35.028;32.372;2023-02-15T09:41:52;7.13;;;3.10;;
12896;SDS011;6516;35.028;32.372;2023-02-15T09:44:56;5.80;;;3.10;;
12896;SDS011;6516;35.028;32.372;2023-02-15T09:47:50;6.88;;;2.53;;
12896;SDS011;6516;35.028;32.372;2023-02-15T09:50:59;6.63;;;2.70;;
12896;SDS011;6516;35.028;32.372;2023-02-15T09:53:53;5.68;;;2.90;;
12896;SDS011;6516;35.028;32.372;2023-02-15T09:56:46;7.17;;;3.07;;
12896;SDS011;6516;35.028;32.372;2023-02-15T09:59:20;5.88;;;2.47;;
12896;SDS011;6516;35.028;32.372;2023-02-15T10:02:04;5.85;;;2.78;;
12896;SDS011;6516;35.028;32.372;2023-02-15T10:04:51;5.60;;;2.80;;
12896;SDS011;6516;35.028;32.372;2023-02-15T10:07:47;7.80;;;2.90;;
12896;SDS011;6516;35.028;32.372;2023-02-15T10:10:38;7.00;;;3.07;;
12896;SDS011;6516;35.028;32.372;2023-02-15T10:13:18;6.28;;;2.88;;
12896;SDS011;6516;35.028;32.372;2023-02-15T10:16:02;6.65;;;2.70;;
12896;SDS011;6516;35.028;32.372;2023-02-15T10:18:55;5.90;;;2.80;;
12896;SDS011;6516;35.028;32.372;2023-02-15T10:21:32;7.55;;;2.90;;
12896;SDS011;6516;35.028;32.372;2023-02-15T10:27:15;5.72;;;2.95;;
12896;SDS011;6516;35.028;32.372;2023-02-15T10:29:48;5.80;;;2.70;;
12896;SDS011;6516;35.028;32.372;2023-02-15T10:32:30;6.68;;;2.53;;
12896;SDS011;6516;35.028;32.372;2023-02-15T10:35:07;6.00;;;2.60;;
12896;SDS011;6516;35.028;32.372;2023-02-15T10:37:50;5.83;;;2.70;;
12896;SDS011;6516;35.028;32.372;2023-02-15T10:40:32;5.15;;;2.80;;
12896;SDS011;6516;35.028;32.372;2023-02-15T10:43:15;8.05;;;2.83;;
12896;SDS011;6516;35.028;32.372;2023-02-15T10:46:11;5.13;;;2.72;;
12896;SDS011;6516;35.028;32.372;2023-02-15T10:52:01;5.87;;;2.90;;
12896;SDS011;6516;35.028;32.372;2023-02-15T10:54:48;7.85;;;2.55;;
12896;SDS011;6516;35.028;32.372;2023-02-15T10:57:24;5.72;;;2.80;;
12896;SDS011;6516;35.028;32.372;2023-02-15T11:00:05;6.00;;;2.60;;
12896;SDS011;6516;35.028;32.372;2023-02-15T11:02:45;5.95;;;2.65;;
12896;SDS011;6516;35.028;32.372;2023-02-15T11:05:43;6.60;;;2.77;;
12896;SDS011;6516;35.028;32.372;2023-02-15T11:08:24;6.47;;;2.90;;
12896;SDS011;6516;35.028;32.372;2023-02-15T11:10:58;5.32;;;2.63;;
12896;SDS011;6516;35.028;32.372;2023-02-15T11:13:32;6.90;;;2.63;;
12896;SDS011;6516;35.028;32.372;2023-02-15T11:16:07;6.90;;;2.92;;
12896;SDS011;6516;35.028;32.372;2023-02-15T11:18:41;6.20;;;2.70;;
12896;SDS011;6516;35.028;32.372;2023-02-15T11:21:17;8.35;;;2.90;;
12896;SDS011;6516;35.028;32.372;2023-02-15T11:23:51;5.97;;;2.70;;
12896;SDS011;6516;35.028;32.372;2023-02-15T11:26:21;5.18;;;2.40;;
12896;SDS011;6516;35.028;32.372;2023-02-15T11:28:57;6.70;;;2.70;;
12896;SDS011;6516;35.028;32.372;2023-02-15T11:31:34;6.77;;;2.93;;
12896;SDS011;6516;35.028;32.372;2023-02-15T11:34:12;7.07;;;3.58;;
12896;SDS011;6516;35.028;32.372;2023-02-15T11:36:47;7.90;;;2.95;;
12896;SDS011;6516;35.028;32.372;2023-02-15T11:39:18;6.50;;;3.00;;
12896;SDS011;6516;35.028;32.372;2023-02-15T11:41:49;29.48;;;10.82;;
12896;SDS011;6516;35.028;32.372;2023-02-15T11:44:21;6.40;;;2.93;;
12896;SDS011;6516;35.028;32.372;2023-02-15T11:46:54;8.15;;;3.17;;
12896;SDS011;6516;35.028;32.372;2023-02-15T11:49:24;7.28;;;2.78;;
12896;SDS011;6516;35.028;32.372;2023-02-15T11:51:57;5.63;;;2.80;;
12896;SDS011;6516;35.028;32.372;2023-02-15T11:54:29;6.05;;;2.83;;
12896;SDS011;6516;35.028;32.372;2023-02-15T11:57:02;6.73;;;3.00;;
12896;SDS011;6516;35.028;32.372;2023-02-15T11:59:39;6.35;;;3.15;;
12896;SDS011;6516;35.028;32.372;2023-02-15T12:02:14;6.32;;;2.70;;
12896;SDS011;6516;35.028;32.372;2023-02-15T12:04:46;6.30;;;2.70;;
12896;SDS011;6516;35.028;32.372;2023-02-15T12:07:22;7.43;;;3.30;;
12896;SDS011;6516;35.028;32.372;2023-02-15T12:09:55;6.60;;;2.73;;
12896;SDS011;6516;35.028;32.372;2023-02-15T12:12:32;6.40;;;2.80;;
12896;SDS011;6516;35.028;32.372;2023-02-15T12:15:02;7.85;;;3.05;;
12896;SDS011;6516;35.028;32.372;2023-02-15T12:17:33;6.47;;;2.92;;
12896;SDS011;6516;35.028;32.372;2023-02-15T12:20:07;6.20;;;2.97;;
12896;SDS011;6516;35.028;32.372;2023-02-15T12:22:53;8.00;;;2.90;;
12896;SDS011;6516;35.028;32.372;2023-02-15T12:25:30;6.25;;;2.70;;
12896;SDS011;6516;35.028;32.372;2023-02-15T12:28:03;7.30;;;2.92;;
12896;SDS011;6516;35.028;32.372;2023-02-15T12:30:46;5.38;;;2.78;;
12896;SDS011;6516;35.028;32.372;2023-02-15T12:33:15;5.38;;;2.63;;
12896;SDS011;6516;35.028;32.372;2023-02-15T12:35:55;7.00;;;3.20;;
12896;SDS011;6516;35.028;32.372;2023-02-15T12:38:27;7.13;;;2.95;;
12896;SDS011;6516;35.028;32.372;2023-02-15T12:41:01;6.95;;;2.97;;
12896;SDS011;6516;35.028;32.372;2023-02-15T12:43:35;8.52;;;3.00;;
12896;SDS011;6516;35.028;32.372;2023-02-15T12:46:19;6.70;;;2.97;;
12896;SDS011;6516;35.028;32.372;2023-02-15T12:49:04;7.13;;;3.10;;
12896;SDS011;6516;35.028;32.372;2023-02-15T12:51:47;9.38;;;4.10;;
12896;SDS011;6516;35.028;32.372;2023-02-15T12:54:20;7.68;;;3.17;;
12896;SDS011;6516;35.028;32.372;2023-02-15T12:57:23;7.25;;;3.05;;
12896;SDS011;6516;35.028;32.372;2023-02-15T12:59:54;5.68;;;2.92;;
12896;SDS011;6516;35.028;32.372;2023-02-15T13:02:28;6.30;;;3.07;;
12896;SDS011;6516;35.028;32.372;2023-02-15T13:05:13;5.05;;;2.63;;
12896;SDS011;6516;35.028;32.372;2023-02-15T13:07:49;6.38;;;2.92;;
12896;SDS011;6516;35.028;32.372;2023-02-15T13:10:25;8.38;;;3.15;;
12896;SDS011;6516;35.028;32.372;2023-02-15T13:12:57;6.53;;;2.67;;
12896;SDS011;6516;35.028;32.372;2023-02-15T13:15:32;5.83;;;2.70;;
12896;SDS011;6516;35.028;32.372;2023-02-15T13:18:04;8.35;;;3.28;;
12896;SDS011;6516;35.028;32.372;2023-02-15T13:20:39;7.10;;;3.00;;
12896;SDS011;6516;35.028;32.372;2023-02-15T13:23:13;6.63;;;2.80;;
12896;SDS011;6516;35.028;32.372;2023-02-15T13:25:54;7.38;;;3.33;;
12896;SDS011;6516;35.028;32.372;2023-02-15T13:28:27;6.47;;;2.90;;
12896;SDS011;6516;35.028;32.372;2023-02-15T13:31:08;7.97;;;3.50;;
12896;SDS011;6516;35.028;32.372;2023-02-15T13:33:42;9.23;;;3.60;;
12896;SDS011;6516;35.028;32.372;2023-02-15T13:36:15;7.70;;;3.40;;
12896;SDS011;6516;35.028;32.372;2023-02-15T13:38:52;6.28;;;3.13;;
12896;SDS011;6516;35.028;32.372;2023-02-15T13:41:33;6.43;;;2.90;;
12896;SDS011;6516;35.028;32.372;2023-02-15T13:44:18;7.13;;;3.10;;
12896;SDS011;6516;35.028;32.372;2023-02-15T13:47:00;6.53;;;3.22;;
12896;SDS011;6516;35.028;32.372;2023-02-15T13:49:43;6.93;;;3.45;;
12896;SDS011;6516;35.028;32.372;2023-02-15T13:52:28;7.30;;;3.50;;
12896;SDS011;6516;35.028;32.372;2023-02-15T13:55:07;7.90;;;3.30;;
12896;SDS011;6516;35.028;32.372;2023-02-15T14:00:47;6.85;;;3.28;;
12896;SDS011;6516;35.028;32.372;2023-02-15T14:03:35;7.35;;;3.25;;
12896;SDS011;6516;35.028;32.372;2023-02-15T14:06:54;6.78;;;2.83;;
12896;SDS011;6516;35.028;32.372;2023-02-15T14:09:39;6.93;;;3.30;;
12896;SDS011;6516;35.028;32.372;2023-02-15T14:12:26;7.75;;;3.00;;
12896;SDS011;6516;35.028;32.372;2023-02-15T14:15:12;8.10;;;2.80;;
12896;SDS011;6516;35.028;32.372;2023-02-15T14:17:58;5.50;;;2.60;;
12896;SDS011;6516;35.028;32.372;2023-02-15T14:20:44;7.50;;;3.15;;
12896;SDS011;6516;35.028;32.372;2023-02-15T14:23:27;7.67;;;3.07;;
12896;SDS011;6516;35.028;32.372;2023-02-15T14:26:10;9.07;;;3.33;;
12896;SDS011;6516;35.028;32.372;2023-02-15T14:28:47;7.68;;;3.35;;
12896;SDS011;6516;35.028;32.372;2023-02-15T14:31:23;6.95;;;3.22;;
12896;SDS011;6516;35.028;32.372;2023-02-15T14:34:01;6.50;;;3.20;;
12896;SDS011;6516;35.028;32.372;2023-02-15T14:36:29;6.67;;;3.10;;
12896;SDS011;6516;35.028;32.372;2023-02-15T14:39:00;5.57;;;2.85;;
12896;SDS011;6516;35.028;32.372;2023-02-15T14:41:57;5.50;;;2.63;;
12896;SDS011;6516;35.028;32.372;2023-02-15T14:44:32;6.03;;;2.80;;
12896;SDS011;6516;35.028;32.372;2023-02-15T14:47:04;8.45;;;3.75;;
12896;SDS011;6516;35.028;32.372;2023-02-15T14:49:38;7.97;;;3.60;;
12896;SDS011;6516;35.028;32.372;2023-02-15T14:52:06;7.05;;;3.10;;
12896;SDS011;6516;35.028;32.372;2023-02-15T14:57:27;6.93;;;3.60;;
12896;SDS011;6516;35.028;32.372;2023-02-15T14:59:58;8.73;;;3.65;;
12896;SDS011;6516;35.028;32.372;2023-02-15T15:02:43;8.43;;;3.73;;
12896;SDS011;6516;35.028;32.372;2023-02-15T15:05:18;8.02;;;3.90;;
12896;SDS011;6516;35.028;32.372;2023-02-15T15:07:51;9.32;;;4.00;;
12896;SDS011;6516;35.028;32.372;2023-02-15T15:10:36;9.10;;;4.07;;
12896;SDS011;6516;35.028;32.372;2023-02-15T15:22:26;10.55;;;5.10;;
12896;SDS011;6516;35.028;32.372;2023-02-15T15:24:56;10.82;;;5.10;;
12896;SDS011;6516;35.028;32.372;2023-02-15T15:27:44;9.18;;;4.70;;
12896;SDS011;6516;35.028;32.372;2023-02-15T15:33:24;9.60;;;4.82;;
12896;SDS011;6516;35.028;32.372;2023-02-15T15:36:44;8.27;;;4.10;;
12896;SDS011;6516;35.028;32.372;2023-02-15T15:43:41;8.45;;;4.20;;
12896;SDS011;6516;35.028;32.372;2023-02-15T15:46:58;7.43;;;3.73;;
12896;SDS011;6516;35.028;32.372;2023-02-15T15:49:54;7.70;;;4.15;;
12896;SDS011;6516;35.028;32.372;2023-02-15T15:52:23;7.97;;;4.30;;
12896;SDS011;6516;35.028;32.372;2023-02-15T15:54:54;8.55;;;4.50;;
12896;SDS011;6516;35.028;32.372;2023-02-15T15:57:27;10.85;;;4.90;;
12896;SDS011;6516;35.028;32.372;2023-02-15T16:00:02;9.13;;;4.93;;
12896;SDS011;6516;35.028;32.372;2023-02-15T16:02:31;9.38;;;4.88;;